createdAt,value
2023-03-30T00:01:30.713Z,15.88
2023-03-30T00:03:58.981Z,15.90
2023-03-30T00:06:26.680Z,16.17
2023-03-30T00:08:58.212Z,18.67
2023-03-30T00:13:55.082Z,16.50
2023-03-30T00:16:22.993Z,16.58
2023-03-30T00:18:50.670Z,17.50
2023-03-30T00:21:20.464Z,17.17
2023-03-30T00:23:48.390Z,17.15
2023-03-30T00:26:16.725Z,17.75
2023-03-30T00:28:44.284Z,17.15
2023-03-30T00:31:11.759Z,18.88
2023-03-30T00:33:45.625Z,18.77
2023-03-30T00:36:15.904Z,18.85
2023-03-30T00:38:44.151Z,19.23
2023-03-30T00:41:12.276Z,19.77
2023-03-30T00:44:00.083Z,18.60
2023-03-30T00:46:31.083Z,20.98
2023-03-30T00:49:05.388Z,18.80
2023-03-30T00:51:37.661Z,20.48
2023-03-30T00:54:13.388Z,20.23
2023-03-30T00:56:41.269Z,21.75
2023-03-30T00:59:09.350Z,19.08
2023-03-30T01:01:39.460Z,20.17
2023-03-30T01:04:09.130Z,21.10
2023-03-30T01:06:40.191Z,21.52
2023-03-30T01:09:08.468Z,21.07
2023-03-30T01:11:35.961Z,21.02
2023-03-30T01:14:06.304Z,20.27
2023-03-30T01:16:43.018Z,21.05
2023-03-30T01:19:49.002Z,21.45
2023-03-30T01:22:53.894Z,22.27
2023-03-30T01:25:49.268Z,23.33
2023-03-30T01:28:35.102Z,26.85
2023-03-30T01:31:11.461Z,24.65
2023-03-30T01:33:50.631Z,26.30
2023-03-30T01:36:34.478Z,23.40
2023-03-30T01:39:22.616Z,23.33
2023-03-30T01:42:05.024Z,23.13
2023-03-30T01:44:53.873Z,22.05
2023-03-30T01:47:38.582Z,22.27
2023-03-30T01:50:17.193Z,22.80
2023-03-30T01:53:10.336Z,23.45
2023-03-30T01:55:46.865Z,20.98
2023-03-30T01:58:29.237Z,21.30
2023-03-30T02:00:58.752Z,20.20
2023-03-30T02:03:30.374Z,21.58
2023-03-30T02:06:13.898Z,20.48
2023-03-30T02:08:42.968Z,21.95
2023-03-30T02:11:11.483Z,23.75
2023-03-30T02:13:40.862Z,25.52
2023-03-30T02:16:35.713Z,23.33
2023-03-30T02:19:04.407Z,21.27
2023-03-30T02:21:32.908Z,22.40
2023-03-30T02:24:03.592Z,21.58
2023-03-30T02:26:32.518Z,20.20
2023-03-30T02:29:00.027Z,21.83
2023-03-30T02:31:28.696Z,20.27
2023-03-30T02:34:09.920Z,20.40
2023-03-30T02:36:48.328Z,22.58
2023-03-30T02:39:33.835Z,22.17
2023-03-30T02:42:06.920Z,24.80
2023-03-30T02:44:58.895Z,22.98
2023-03-30T02:47:53.239Z,23.67
2023-03-30T02:50:33.324Z,21.15
2023-03-30T02:53:43.172Z,22.80
2023-03-30T02:56:37.714Z,22.75
2023-03-30T02:59:13.029Z,25.08
2023-03-30T03:01:50.799Z,25.80
2023-03-30T03:04:19.298Z,23.60
2023-03-30T03:07:14.861Z,23.60
2023-03-30T03:09:42.942Z,23.30
2023-03-30T03:12:10.402Z,25.35
2023-03-30T03:14:39.668Z,25.05
2023-03-30T03:17:07.306Z,25.25
2023-03-30T03:22:06.835Z,26.75
2023-03-30T03:24:39.203Z,27.25
2023-03-30T03:27:09.572Z,26.30
2023-03-30T03:29:55.100Z,25.75
2023-03-30T03:32:22.643Z,27.42
2023-03-30T03:34:51.071Z,25.52
2023-03-30T03:37:19.411Z,26.88
2023-03-30T03:39:47.026Z,28.45
2023-03-30T03:42:16.066Z,26.35
2023-03-30T03:44:52.170Z,26.58
2023-03-30T03:47:19.769Z,24.63
2023-03-30T03:49:47.589Z,28.08
2023-03-30T03:52:14.952Z,26.55
2023-03-30T03:54:42.308Z,26.33
2023-03-30T03:57:10.073Z,26.33
2023-03-30T03:59:37.884Z,25.80
2023-03-30T04:02:06.575Z,27.20
2023-03-30T04:04:34.025Z,27.30
2023-03-30T04:07:01.439Z,25.38
2023-03-30T04:09:31.118Z,27.48
2023-03-30T04:12:17.639Z,24.60
2023-03-30T04:15:06.879Z,25.42
2023-03-30T04:17:49.961Z,25.97
2023-03-30T04:23:37.369Z,25.95
2023-03-30T04:26:20.064Z,25.85
2023-03-30T04:29:06.479Z,24.15
2023-03-30T04:31:54.161Z,27.30
2023-03-30T04:34:21.902Z,27.60
2023-03-30T04:37:04.535Z,26.27
2023-03-30T04:39:44.092Z,26.55
2023-03-30T04:42:38.288Z,26.50
2023-03-30T04:45:23.942Z,26.48
2023-03-30T04:48:29.608Z,24.38
2023-03-30T04:50:59.572Z,22.55
2023-03-30T04:53:32.548Z,23.50
2023-03-30T04:55:59.896Z,22.27
2023-03-30T04:58:40.168Z,24.27
2023-03-30T05:01:27.817Z,24.92
2023-03-30T05:03:57.805Z,24.40
2023-03-30T05:06:49.842Z,25.88
2023-03-30T05:09:35.988Z,24.33
2023-03-30T05:12:21.713Z,24.45
2023-03-30T05:15:05.484Z,23.50
2023-03-30T05:17:49.927Z,23.35
2023-03-30T05:20:20.303Z,25.67
2023-03-30T05:23:03.827Z,22.92
2023-03-30T05:25:50.472Z,22.48
2023-03-30T05:28:51.458Z,22.33
2023-03-30T05:31:33.219Z,20.77
2023-03-30T05:34:18.757Z,22.30
2023-03-30T05:37:04.689Z,21.17
2023-03-30T05:39:34.867Z,20.90
2023-03-30T05:42:25.106Z,22.27
2023-03-30T05:45:05.717Z,21.75
2023-03-30T05:47:54.512Z,21.00
2023-03-30T05:50:43.045Z,20.20
2023-03-30T05:53:20.048Z,20.20
2023-03-30T05:56:07.252Z,22.27
2023-03-30T05:59:06.599Z,21.25
2023-03-30T06:02:00.713Z,22.13
2023-03-30T06:04:28.292Z,21.88
2023-03-30T06:06:55.809Z,22.20
2023-03-30T06:09:24.124Z,20.50
2023-03-30T06:11:51.929Z,21.88
2023-03-30T06:14:23.484Z,20.83
2023-03-30T06:17:20.306Z,20.65
2023-03-30T06:19:47.713Z,20.17
2023-03-30T06:22:15.490Z,21.17
2023-03-30T06:25:05.993Z,22.10
2023-03-30T06:27:33.359Z,21.90
2023-03-30T06:30:00.989Z,20.15
2023-03-30T06:32:28.529Z,22.10
2023-03-30T06:35:34.126Z,20.02
2023-03-30T06:38:01.967Z,20.98
2023-03-30T06:40:30.828Z,20.40
2023-03-30T06:42:59.640Z,20.08
2023-03-30T06:45:38.145Z,20.27
2023-03-30T06:48:07.094Z,20.48
2023-03-30T06:50:38.746Z,19.65
2023-03-30T06:53:24.021Z,19.63
2023-03-30T06:55:53.720Z,20.95
2023-03-30T06:58:22.548Z,19.15
2023-03-30T07:00:51.661Z,19.33
2023-03-30T07:03:39.119Z,19.55
2023-03-30T07:06:21.028Z,20.85
2023-03-30T07:08:49.652Z,18.15
2023-03-30T07:11:22.513Z,18.45
2023-03-30T07:13:51.523Z,18.35
2023-03-30T07:16:19.303Z,20.30
2023-03-30T07:18:47.768Z,19.65
2023-03-30T07:21:15.177Z,20.10
2023-03-30T07:23:43.354Z,19.02
2023-03-30T07:26:16.924Z,19.35
2023-03-30T07:28:56.538Z,17.55
2023-03-30T07:31:25.194Z,18.30
2023-03-30T07:33:53.011Z,19.05
2023-03-30T07:36:25.136Z,17.40
2023-03-30T07:38:53.390Z,19.30
2023-03-30T07:41:21.211Z,18.35
2023-03-30T07:43:53.056Z,21.25
2023-03-30T07:46:20.660Z,20.85
2023-03-30T07:48:51.106Z,22.38
2023-03-30T07:51:20.329Z,19.85
2023-03-30T07:53:55.569Z,19.27
2023-03-30T07:56:38.513Z,16.73
2023-03-30T07:59:08.247Z,18.95
2023-03-30T08:01:38.930Z,19.60
2023-03-30T08:04:26.474Z,17.90
2023-03-30T08:06:54.970Z,18.25
2023-03-30T08:09:24.454Z,16.55
2023-03-30T08:11:51.829Z,17.33
2023-03-30T08:14:19.218Z,16.20
2023-03-30T08:16:46.979Z,15.93
2023-03-30T08:19:14.374Z,16.33
2023-03-30T08:21:41.745Z,15.88
2023-03-30T08:24:09.953Z,16.17
2023-03-30T08:26:38.284Z,15.77
2023-03-30T08:29:07.088Z,16.38
2023-03-30T08:31:34.536Z,14.70
2023-03-30T08:34:04.401Z,14.90
2023-03-30T08:36:31.950Z,14.38
2023-03-30T08:39:00.309Z,16.00
2023-03-30T08:41:31.649Z,14.63
2023-03-30T08:44:00.844Z,13.27
2023-03-30T08:46:29.915Z,13.38
2023-03-30T08:49:01.149Z,13.13
2023-03-30T08:51:31.043Z,13.07
2023-03-30T08:54:05.549Z,13.68
2023-03-30T08:56:47.879Z,12.95
2023-03-30T08:59:18.156Z,12.70
2023-03-30T09:02:14.417Z,13.07
2023-03-30T09:05:11.139Z,12.68
2023-03-30T09:07:46.729Z,13.55
2023-03-30T09:10:15.884Z,13.25
2023-03-30T09:12:51.307Z,18.98
2023-03-30T09:15:39.585Z,13.05
2023-03-30T09:18:11.264Z,13.13
2023-03-30T09:20:40.802Z,9.73
2023-03-30T09:23:14.267Z,12.45
2023-03-30T09:26:00.690Z,15.13
2023-03-30T09:28:37.057Z,16.23
2023-03-30T09:31:04.889Z,15.32
2023-03-30T09:33:44.138Z,13.35
2023-03-30T09:36:17.934Z,11.88
2023-03-30T09:38:46.065Z,13.27
2023-03-30T09:41:31.434Z,10.98
2023-03-30T09:44:00.251Z,11.80
2023-03-30T09:46:27.648Z,12.43
2023-03-30T09:49:11.360Z,11.75
2023-03-30T09:51:57.144Z,11.45
2023-03-30T09:54:24.616Z,11.65
2023-03-30T09:56:54.810Z,10.68
2023-03-30T09:59:28.822Z,11.23
2023-03-30T10:02:17.087Z,11.55
2023-03-30T10:04:53.400Z,11.38
2023-03-30T10:07:39.819Z,12.38
2023-03-30T10:10:13.402Z,11.75
2023-03-30T10:12:41.039Z,11.52
2023-03-30T10:15:20.851Z,12.45
2023-03-30T10:17:48.844Z,13.27
2023-03-30T10:20:36.341Z,12.05
2023-03-30T10:23:13.456Z,12.25
2023-03-30T10:25:42.549Z,12.88
2023-03-30T10:28:27.064Z,10.73
2023-03-30T10:31:04.487Z,11.63
2023-03-30T10:33:37.993Z,11.32
2023-03-30T10:36:07.869Z,11.43
2023-03-30T10:38:36.397Z,13.57
2023-03-30T10:41:11.427Z,12.30
2023-03-30T10:43:41.189Z,11.23
2023-03-30T10:46:24.117Z,13.18
2023-03-30T10:49:17.962Z,12.00
2023-03-30T10:51:51.291Z,12.07
2023-03-30T10:54:23.721Z,11.80
2023-03-30T10:59:41.296Z,10.50
2023-03-30T11:02:27.501Z,11.80
2023-03-30T11:05:27.066Z,11.57
2023-03-30T11:08:06.234Z,10.73
2023-03-30T11:10:44.477Z,10.23
2023-03-30T11:13:11.809Z,11.82
2023-03-30T11:15:43.476Z,12.70
2023-03-30T11:18:23.761Z,11.45
2023-03-30T11:21:00.174Z,10.20
2023-03-30T11:23:56.300Z,10.82
2023-03-30T11:26:59.240Z,10.52
2023-03-30T11:32:31.669Z,10.55
2023-03-30T11:35:02.113Z,10.88
2023-03-30T11:37:42.571Z,11.88
2023-03-30T11:40:51.753Z,10.65
2023-03-30T11:43:23.442Z,10.18
2023-03-30T11:46:06.390Z,11.20
2023-03-30T11:48:45.601Z,11.25
2023-03-30T11:51:15.996Z,11.15
2023-03-30T11:53:54.130Z,11.90
2023-03-30T11:56:42.645Z,10.73
2023-03-30T11:59:21.317Z,11.32
2023-03-30T12:01:58.684Z,11.20
2023-03-30T12:04:37.486Z,10.30
2023-03-30T12:07:14.491Z,10.23
2023-03-30T12:09:54.789Z,9.90
2023-03-30T12:12:39.190Z,10.85
2023-03-30T12:15:15.964Z,11.20
2023-03-30T12:17:49.326Z,11.05
2023-03-30T12:20:47.524Z,10.85
2023-03-30T12:23:17.889Z,9.93
2023-03-30T12:26:03.903Z,10.18
2023-03-30T12:29:06.603Z,11.35
2023-03-30T12:32:04.349Z,10.43
2023-03-30T12:34:41.427Z,11.20
2023-03-30T12:37:19.387Z,11.57
2023-03-30T12:40:08.380Z,11.00
2023-03-30T12:42:39.604Z,10.63
2023-03-30T12:45:16.524Z,10.80
2023-03-30T12:48:05.032Z,10.68
2023-03-30T12:50:45.393Z,13.00
2023-03-30T12:53:40.073Z,11.60
2023-03-30T12:56:41.903Z,11.07
2023-03-30T12:59:47.892Z,10.93
2023-03-30T13:02:18.299Z,11.68
2023-03-30T13:04:48.913Z,9.85
2023-03-30T13:07:23.268Z,10.70
2023-03-30T13:09:57.865Z,10.00
2023-03-30T13:12:38.127Z,10.45
2023-03-30T13:15:29.691Z,9.85
2023-03-30T13:18:09.627Z,9.97
2023-03-30T13:20:57.098Z,10.98
2023-03-30T13:23:31.539Z,10.13
2023-03-30T13:26:33.794Z,10.30
2023-03-30T13:29:08.181Z,10.82
2023-03-30T13:31:47.581Z,10.88
2023-03-30T13:34:37.548Z,13.52
2023-03-30T13:37:15.653Z,11.13
2023-03-30T13:39:53.254Z,11.00
2023-03-30T13:42:52.922Z,11.02
2023-03-30T13:45:32.971Z,10.93
2023-03-30T13:48:09.124Z,10.45
2023-03-30T13:50:36.913Z,10.93
2023-03-30T13:53:10.720Z,9.77
2023-03-30T13:55:51.026Z,10.43
2023-03-30T13:58:25.771Z,11.55
2023-03-30T14:01:09.695Z,10.48
2023-03-30T14:03:57.496Z,10.77
2023-03-30T14:06:28.089Z,9.63
2023-03-30T14:09:00.133Z,9.63
2023-03-30T14:11:34.465Z,9.93
2023-03-30T14:14:03.856Z,9.73
2023-03-30T14:16:40.544Z,10.13
2023-03-30T14:19:20.542Z,10.68
2023-03-30T14:21:48.471Z,9.55
2023-03-30T14:24:19.300Z,10.48
2023-03-30T14:26:48.176Z,9.77
2023-03-30T14:29:30.370Z,9.40
2023-03-30T14:34:34.110Z,10.25
2023-03-30T14:37:06.016Z,9.95
2023-03-30T14:39:46.137Z,9.82
2023-03-30T14:42:21.875Z,10.52
2023-03-30T14:44:51.728Z,9.77
2023-03-30T14:47:25.697Z,9.98
2023-03-30T14:49:56.378Z,9.45
2023-03-30T14:52:30.059Z,10.15
2023-03-30T14:55:07.333Z,9.13
2023-03-30T14:57:39.460Z,10.48
2023-03-30T15:00:20.922Z,10.05
2023-03-30T15:02:57.768Z,9.18
2023-03-30T15:05:36.251Z,9.55
2023-03-30T15:08:04.761Z,10.50
2023-03-30T15:11:00.106Z,10.10
2023-03-30T15:14:03.052Z,9.55
2023-03-30T15:19:06.736Z,9.48
2023-03-30T15:21:37.101Z,10.50
2023-03-30T15:24:12.996Z,10.68
2023-03-30T15:26:46.355Z,11.77
2023-03-30T15:29:16.390Z,11.82
2023-03-30T15:31:44.633Z,12.18
2023-03-30T15:34:17.455Z,12.32
2023-03-30T15:36:45.572Z,11.27
2023-03-30T15:39:20.502Z,9.98
2023-03-30T15:42:01.469Z,10.73
2023-03-30T15:44:29.244Z,11.20
2023-03-30T15:46:58.369Z,11.82
2023-03-30T15:49:49.154Z,10.45
2023-03-30T15:52:30.349Z,10.88
2023-03-30T15:55:07.694Z,11.45
2023-03-30T15:57:36.721Z,11.40
2023-03-30T16:00:12.538Z,11.30
2023-03-30T16:02:59.906Z,11.63
2023-03-30T16:05:36.802Z,11.00
2023-03-30T16:08:05.365Z,10.82
2023-03-30T16:10:33.837Z,10.93
2023-03-30T16:13:04.108Z,12.35
2023-03-30T16:15:33.156Z,11.82
2023-03-30T16:18:00.832Z,11.88
2023-03-30T16:20:31.387Z,11.90
2023-03-30T16:22:59.557Z,12.60
2023-03-30T16:25:34.503Z,12.10
2023-03-30T16:28:17.302Z,12.55
2023-03-30T16:30:47.820Z,12.25
2023-03-30T16:33:15.406Z,11.65
2023-03-30T16:35:42.860Z,12.80
2023-03-30T16:38:14.649Z,12.57
2023-03-30T16:40:53.443Z,12.80
2023-03-30T16:43:21.241Z,13.02
2023-03-30T16:45:48.695Z,15.48
2023-03-30T16:48:16.558Z,13.18
2023-03-30T16:50:46.650Z,13.63
2023-03-30T16:53:14.240Z,12.10
2023-03-30T16:55:41.702Z,14.25
2023-03-30T16:58:13.823Z,16.15
2023-03-30T17:00:53.104Z,12.82
2023-03-30T17:03:20.905Z,13.45
2023-03-30T17:05:48.979Z,21.08
2023-03-30T17:08:23.602Z,12.50
2023-03-30T17:10:52.754Z,17.83
2023-03-30T17:13:20.746Z,17.67
2023-03-30T17:15:48.138Z,14.95
2023-03-30T17:18:21.375Z,18.45
2023-03-30T17:20:52.104Z,13.57
2023-03-30T17:23:22.077Z,13.60
2023-03-30T17:25:50.327Z,12.30
2023-03-30T17:28:23.560Z,12.75
2023-03-30T17:30:52.895Z,12.98
2023-03-30T17:33:20.508Z,12.07
2023-03-30T17:35:56.209Z,12.68
2023-03-30T17:38:24.044Z,13.07
2023-03-30T17:40:51.828Z,13.18
2023-03-30T17:43:19.345Z,13.75
2023-03-30T17:45:48.053Z,14.52
2023-03-30T17:48:20.261Z,13.77
2023-03-30T17:50:51.155Z,13.00
2023-03-30T17:53:20.205Z,13.52
2023-03-30T17:55:49.698Z,17.52
2023-03-30T17:58:20.701Z,22.48
2023-03-30T18:00:49.343Z,15.77
2023-03-30T18:03:18.618Z,15.75
2023-03-30T18:05:47.364Z,15.10
2023-03-30T18:08:17.791Z,15.45
2023-03-30T18:10:48.122Z,15.43
2023-03-30T18:13:16.657Z,16.02
2023-03-30T18:15:46.297Z,16.40
2023-03-30T18:18:14.233Z,15.00
2023-03-30T18:20:45.064Z,17.17
2023-03-30T18:23:12.577Z,17.08
2023-03-30T18:25:39.944Z,18.60
2023-03-30T18:28:18.878Z,17.83
2023-03-30T18:30:46.672Z,17.10
2023-03-30T18:33:16.775Z,17.42
2023-03-30T18:35:46.616Z,18.60
2023-03-30T18:38:16.876Z,19.58
2023-03-30T18:40:47.004Z,19.80
2023-03-30T18:43:14.482Z,21.20
2023-03-30T18:45:48.038Z,19.05
2023-03-30T18:48:18.215Z,20.73
2023-03-30T18:50:53.995Z,20.77
2023-03-30T18:53:26.972Z,20.02
2023-03-30T18:55:58.044Z,19.42
2023-03-30T18:58:27.944Z,20.65
2023-03-30T19:00:56.095Z,20.48
2023-03-30T19:03:24.920Z,20.83
2023-03-30T19:05:52.575Z,21.50
2023-03-30T19:08:25.725Z,23.10
2023-03-30T19:10:55.845Z,21.02
2023-03-30T19:13:25.287Z,20.95
2023-03-30T19:15:53.031Z,19.48
2023-03-30T19:18:21.082Z,19.48
2023-03-30T19:20:50.829Z,17.85
2023-03-30T19:23:19.188Z,18.60
2023-03-30T19:25:46.730Z,47.50
2023-03-30T19:28:15.711Z,34.40
2023-03-30T19:30:43.521Z,20.10
2023-03-30T19:33:15.249Z,20.58
2023-03-30T19:35:44.774Z,24.30
2023-03-30T19:38:13.132Z,24.92
2023-03-30T19:40:41.527Z,26.95
2023-03-30T19:43:09.383Z,23.15
2023-03-30T19:45:36.852Z,22.15
2023-03-30T19:48:04.560Z,22.95
2023-03-30T19:50:32.182Z,24.60
2023-03-30T19:52:59.756Z,27.30
2023-03-30T19:55:27.284Z,37.28
2023-03-30T19:57:54.745Z,34.88
2023-03-30T20:00:22.658Z,47.25
2023-03-30T20:02:52.591Z,38.95
2023-03-30T20:05:22.428Z,23.10
2023-03-30T20:07:50.594Z,21.58
2023-03-30T20:10:23.722Z,23.58
2023-03-30T20:12:52.607Z,22.67
2023-03-30T20:15:22.012Z,21.98
2023-03-30T20:17:49.541Z,21.20
2023-03-30T20:20:25.178Z,19.88
2023-03-30T20:22:56.091Z,21.20
2023-03-30T20:25:24.705Z,21.45
2023-03-30T20:27:52.633Z,19.13
2023-03-30T20:30:20.309Z,22.63
2023-03-30T20:33:03.866Z,22.20
2023-03-30T20:35:38.509Z,20.63
2023-03-30T20:38:08.267Z,19.73
2023-03-30T20:40:36.061Z,19.77
2023-03-30T20:43:03.611Z,21.35
2023-03-30T20:45:31.846Z,20.15
2023-03-30T20:48:06.009Z,20.60
2023-03-30T20:50:33.918Z,20.38
2023-03-30T20:53:02.168Z,20.85
2023-03-30T20:55:29.602Z,20.70
2023-03-30T20:57:56.965Z,22.23
2023-03-30T21:00:24.339Z,20.77
2023-03-30T21:02:51.966Z,20.27
2023-03-30T21:05:19.493Z,21.17
2023-03-30T21:07:48.142Z,21.45
2023-03-30T21:10:16.567Z,21.55
2023-03-30T21:12:44.007Z,21.27
2023-03-30T21:15:11.574Z,22.38
2023-03-30T21:17:38.930Z,21.08
2023-03-30T21:20:09.358Z,22.83
2023-03-30T21:22:36.956Z,22.77
2023-03-30T21:25:04.639Z,22.40
2023-03-30T21:27:32.362Z,23.65
2023-03-30T21:30:00.528Z,22.05
2023-03-30T21:32:29.350Z,21.23
2023-03-30T21:34:58.893Z,22.45
2023-03-30T21:37:26.286Z,23.02
2023-03-30T21:39:53.621Z,22.27
2023-03-30T21:42:21.192Z,23.65
2023-03-30T21:44:48.551Z,22.40
2023-03-30T21:47:16.731Z,22.13
2023-03-30T21:49:44.212Z,23.13
2023-03-30T21:52:11.791Z,23.80
2023-03-30T21:54:39.420Z,21.95
2023-03-30T21:57:06.862Z,23.42
2023-03-30T21:59:34.393Z,23.08
2023-03-30T22:02:01.832Z,22.80
2023-03-30T22:04:29.205Z,21.80
2023-03-30T22:06:56.582Z,22.40
2023-03-30T22:09:23.948Z,23.35
2023-03-30T22:11:53.044Z,21.30
2023-03-30T22:14:20.377Z,22.20
2023-03-30T22:16:48.015Z,20.48
2023-03-30T22:19:15.486Z,21.33
2023-03-30T22:21:43.135Z,21.83
2023-03-30T22:24:12.244Z,23.75
2023-03-30T22:26:39.793Z,22.50
2023-03-30T22:29:07.226Z,23.05
2023-03-30T22:31:34.628Z,24.40
2023-03-30T22:34:02.080Z,22.58
2023-03-30T22:36:30.884Z,22.27
2023-03-30T22:38:59.792Z,23.08
2023-03-30T22:41:27.915Z,23.05
2023-03-30T22:43:57.079Z,24.88
2023-03-30T22:46:26.271Z,22.80
2023-03-30T22:48:55.697Z,23.15
2023-03-30T22:51:26.734Z,22.33
2023-03-30T22:53:59.309Z,23.80
2023-03-30T22:56:28.272Z,23.02
2023-03-30T22:58:56.079Z,23.38
2023-03-30T23:01:23.884Z,24.42
2023-03-30T23:03:53.094Z,23.35
2023-03-30T23:06:21.449Z,23.70
2023-03-30T23:08:49.156Z,21.40
2023-03-30T23:11:16.904Z,23.98
2023-03-30T23:13:44.464Z,23.95
2023-03-30T23:16:11.805Z,22.85
2023-03-30T23:18:39.677Z,22.75
2023-03-30T23:21:08.343Z,22.77
2023-03-30T23:23:36.398Z,23.83
2023-03-30T23:26:09.915Z,25.42
2023-03-30T23:28:40.200Z,24.55
2023-03-30T23:31:18.947Z,24.70
2023-03-30T23:33:46.499Z,25.27
2023-03-30T23:36:16.941Z,23.02
2023-03-30T23:38:45.508Z,24.35
2023-03-30T23:41:14.897Z,24.88
2023-03-30T23:43:44.795Z,24.35
2023-03-30T23:46:13.396Z,24.42
2023-03-30T23:48:41.988Z,24.58
2023-03-30T23:51:09.710Z,24.83
2023-03-30T23:53:40.249Z,24.92
2023-03-30T23:56:17.154Z,25.40
2023-03-30T23:58:45.036Z,25.30
